sensor_id;sensor_type;location;lat;lon;timestamp;temperature;humidity
20722;DHT22;10522;52.198;9.890;2023-07-31T00:00:47;16.00;99.90
20722;DHT22;10522;52.198;9.890;2023-07-31T00:03:12;16.00;99.90
20722;DHT22;10522;52.198;9.890;2023-07-31T00:05:38;15.90;99.90
20722;DHT22;10522;52.198;9.890;2023-07-31T00:08:03;15.90;99.90
20722;DHT22;10522;52.198;9.890;2023-07-31T00:10:29;16.00;99.90
20722;DHT22;10522;52.198;9.890;2023-07-31T00:12:55;15.90;99.90
20722;DHT22;10522;52.198;9.890;2023-07-31T00:15:20;15.90;99.90
20722;DHT22;10522;52.198;9.890;2023-07-31T00:17:46;15.90;99.90
20722;DHT22;10522;52.198;9.890;2023-07-31T00:20:13;15.90;99.90
20722;DHT22;10522;52.198;9.890;2023-07-31T00:22:38;16.00;99.90
20722;DHT22;10522;52.198;9.890;2023-07-31T00:25:04;16.00;99.90
20722;DHT22;10522;52.198;9.890;2023-07-31T00:27:32;16.00;99.90
20722;DHT22;10522;52.198;9.890;2023-07-31T00:29:57;16.00;99.90
20722;DHT22;10522;52.198;9.890;2023-07-31T00:32:23;16.00;99.90
20722;DHT22;10522;52.198;9.890;2023-07-31T00:34:48;16.00;99.90
20722;DHT22;10522;52.198;9.890;2023-07-31T00:37:14;16.00;99.90
20722;DHT22;10522;52.198;9.890;2023-07-31T00:39:41;16.00;99.90
20722;DHT22;10522;52.198;9.890;2023-07-31T00:42:06;16.00;99.90
20722;DHT22;10522;52.198;9.890;2023-07-31T00:44:32;16.10;99.90
20722;DHT22;10522;52.198;9.890;2023-07-31T00:46:58;16.10;99.90
20722;DHT22;10522;52.198;9.890;2023-07-31T00:49:25;16.10;99.90
20722;DHT22;10522;52.198;9.890;2023-07-31T00:51:52;16.10;99.90
20722;DHT22;10522;52.198;9.890;2023-07-31T00:54:18;16.10;99.90
20722;DHT22;10522;52.198;9.890;2023-07-31T00:56:45;16.10;99.90
20722;DHT22;10522;52.198;9.890;2023-07-31T00:59:11;16.10;99.90
20722;DHT22;10522;52.198;9.890;2023-07-31T01:01:37;16.10;99.90
20722;DHT22;10522;52.198;9.890;2023-07-31T01:04:03;16.10;99.90
20722;DHT22;10522;52.198;9.890;2023-07-31T01:09:47;16.10;99.90
20722;DHT22;10522;52.198;9.890;2023-07-31T01:12:16;16.10;99.90
20722;DHT22;10522;52.198;9.890;2023-07-31T01:15:12;16.10;99.90
20722;DHT22;10522;52.198;9.890;2023-07-31T01:17:38;16.10;99.90
20722;DHT22;10522;52.198;9.890;2023-07-31T01:20:11;16.10;99.90
20722;DHT22;10522;52.198;9.890;2023-07-31T01:28:14;16.10;99.90
20722;DHT22;10522;52.198;9.890;2023-07-31T01:30:47;16.00;99.90
20722;DHT22;10522;52.198;9.890;2023-07-31T01:33:14;16.00;99.90
20722;DHT22;10522;52.198;9.890;2023-07-31T01:35:44;16.00;99.90
20722;DHT22;10522;52.198;9.890;2023-07-31T01:38:10;16.00;99.90
20722;DHT22;10522;52.198;9.890;2023-07-31T01:40:35;16.00;99.90
20722;DHT22;10522;52.198;9.890;2023-07-31T01:43:01;16.00;99.90
20722;DHT22;10522;52.198;9.890;2023-07-31T01:45:27;16.00;99.90
20722;DHT22;10522;52.198;9.890;2023-07-31T01:47:52;16.00;99.90
20722;DHT22;10522;52.198;9.890;2023-07-31T01:50:18;16.00;99.90
20722;DHT22;10522;52.198;9.890;2023-07-31T01:52:43;16.00;99.90
20722;DHT22;10522;52.198;9.890;2023-07-31T01:55:09;16.00;99.90
20722;DHT22;10522;52.198;9.890;2023-07-31T01:57:37;16.00;99.90
20722;DHT22;10522;52.198;9.890;2023-07-31T02:00:03;16.00;99.90
20722;DHT22;10522;52.198;9.890;2023-07-31T02:02:29;16.00;99.90
20722;DHT22;10522;52.198;9.890;2023-07-31T02:04:54;15.90;99.90
20722;DHT22;10522;52.198;9.890;2023-07-31T02:07:20;16.00;99.90
20722;DHT22;10522;52.198;9.890;2023-07-31T02:09:45;16.00;99.90
20722;DHT22;10522;52.198;9.890;2023-07-31T02:12:13;16.00;99.90
20722;DHT22;10522;52.198;9.890;2023-07-31T02:14:40;16.00;99.90
20722;DHT22;10522;52.198;9.890;2023-07-31T02:17:06;16.10;99.90
20722;DHT22;10522;52.198;9.890;2023-07-31T02:19:31;16.10;99.90
20722;DHT22;10522;52.198;9.890;2023-07-31T02:21:57;16.10;99.90
20722;DHT22;10522;52.198;9.890;2023-07-31T02:24:24;16.10;99.90
20722;DHT22;10522;52.198;9.890;2023-07-31T02:26:49;16.10;99.90
20722;DHT22;10522;52.198;9.890;2023-07-31T02:29:15;16.00;99.90
20722;DHT22;10522;52.198;9.890;2023-07-31T02:31:40;16.10;99.90
20722;DHT22;10522;52.198;9.890;2023-07-31T02:34:06;16.10;99.90
20722;DHT22;10522;52.198;9.890;2023-07-31T02:36:32;16.10;99.90
20722;DHT22;10522;52.198;9.890;2023-07-31T02:38:57;16.00;99.90
20722;DHT22;10522;52.198;9.890;2023-07-31T02:41:23;16.00;99.90
20722;DHT22;10522;52.198;9.890;2023-07-31T02:43:48;16.10;99.90
20722;DHT22;10522;52.198;9.890;2023-07-31T02:46:14;16.10;99.90
20722;DHT22;10522;52.198;9.890;2023-07-31T02:48:40;16.10;99.90
20722;DHT22;10522;52.198;9.890;2023-07-31T02:51:05;16.10;99.90
20722;DHT22;10522;52.198;9.890;2023-07-31T02:53:31;16.10;99.90
20722;DHT22;10522;52.198;9.890;2023-07-31T02:55:56;16.10;99.90
20722;DHT22;10522;52.198;9.890;2023-07-31T02:58:22;16.10;99.90
20722;DHT22;10522;52.198;9.890;2023-07-31T03:00:48;16.10;99.90
20722;DHT22;10522;52.198;9.890;2023-07-31T03:03:13;16.10;99.90
20722;DHT22;10522;52.198;9.890;2023-07-31T03:05:39;16.00;99.90
20722;DHT22;10522;52.198;9.890;2023-07-31T03:08:05;16.00;99.90
20722;DHT22;10522;52.198;9.890;2023-07-31T03:10:31;16.00;99.90
20722;DHT22;10522;52.198;9.890;2023-07-31T03:12:56;16.10;99.90
20722;DHT22;10522;52.198;9.890;2023-07-31T03:15:22;16.10;99.90
20722;DHT22;10522;52.198;9.890;2023-07-31T03:17:48;16.10;99.90
20722;DHT22;10522;52.198;9.890;2023-07-31T03:20:13;16.10;99.90
20722;DHT22;10522;52.198;9.890;2023-07-31T03:22:39;16.10;99.90
20722;DHT22;10522;52.198;9.890;2023-07-31T03:25:05;16.10;99.90
20722;DHT22;10522;52.198;9.890;2023-07-31T03:27:31;16.10;99.90
20722;DHT22;10522;52.198;9.890;2023-07-31T03:29:56;16.10;99.90
20722;DHT22;10522;52.198;9.890;2023-07-31T03:32:22;16.00;99.90
20722;DHT22;10522;52.198;9.890;2023-07-31T03:34:49;16.00;99.90
20722;DHT22;10522;52.198;9.890;2023-07-31T03:37:14;16.00;99.90
20722;DHT22;10522;52.198;9.890;2023-07-31T03:39:40;16.00;99.90
20722;DHT22;10522;52.198;9.890;2023-07-31T03:42:06;16.00;99.90
20722;DHT22;10522;52.198;9.890;2023-07-31T03:44:31;15.90;99.90
20722;DHT22;10522;52.198;9.890;2023-07-31T03:46:57;15.90;99.90
20722;DHT22;10522;52.198;9.890;2023-07-31T03:49:23;15.90;99.90
20722;DHT22;10522;52.198;9.890;2023-07-31T03:51:49;15.90;99.90
20722;DHT22;10522;52.198;9.890;2023-07-31T03:54:15;15.90;99.90
20722;DHT22;10522;52.198;9.890;2023-07-31T03:56:41;16.00;99.90
20722;DHT22;10522;52.198;9.890;2023-07-31T03:59:06;15.90;99.90
20722;DHT22;10522;52.198;9.890;2023-07-31T04:01:32;15.90;99.90
20722;DHT22;10522;52.198;9.890;2023-07-31T04:03:57;15.80;99.90
20722;DHT22;10522;52.198;9.890;2023-07-31T04:06:23;15.70;99.90
20722;DHT22;10522;52.198;9.890;2023-07-31T04:08:49;15.70;99.90
20722;DHT22;10522;52.198;9.890;2023-07-31T04:11:14;15.70;99.90
20722;DHT22;10522;52.198;9.890;2023-07-31T04:13:40;15.70;99.90
20722;DHT22;10522;52.198;9.890;2023-07-31T04:16:06;15.70;99.90
20722;DHT22;10522;52.198;9.890;2023-07-31T04:18:31;15.70;99.90
20722;DHT22;10522;52.198;9.890;2023-07-31T04:20:58;15.70;99.90
20722;DHT22;10522;52.198;9.890;2023-07-31T04:23:24;15.80;99.90
20722;DHT22;10522;52.198;9.890;2023-07-31T04:25:50;15.70;99.90
20722;DHT22;10522;52.198;9.890;2023-07-31T04:28:16;15.70;99.90
20722;DHT22;10522;52.198;9.890;2023-07-31T04:30:41;15.70;99.90
20722;DHT22;10522;52.198;9.890;2023-07-31T04:33:07;15.80;99.90
20722;DHT22;10522;52.198;9.890;2023-07-31T04:35:33;15.80;99.90
20722;DHT22;10522;52.198;9.890;2023-07-31T04:37:58;15.80;99.90
20722;DHT22;10522;52.198;9.890;2023-07-31T04:40:24;15.80;99.90
20722;DHT22;10522;52.198;9.890;2023-07-31T04:42:50;15.80;99.90
20722;DHT22;10522;52.198;9.890;2023-07-31T04:45:15;15.80;99.90
20722;DHT22;10522;52.198;9.890;2023-07-31T04:47:41;15.80;99.90
20722;DHT22;10522;52.198;9.890;2023-07-31T04:50:07;15.80;99.90
20722;DHT22;10522;52.198;9.890;2023-07-31T04:52:33;15.80;99.90
20722;DHT22;10522;52.198;9.890;2023-07-31T04:54:58;15.90;99.90
20722;DHT22;10522;52.198;9.890;2023-07-31T04:57:24;15.90;99.90
20722;DHT22;10522;52.198;9.890;2023-07-31T04:59:49;15.90;99.90
20722;DHT22;10522;52.198;9.890;2023-07-31T05:02:15;16.00;99.90
20722;DHT22;10522;52.198;9.890;2023-07-31T05:04:41;16.00;99.90
20722;DHT22;10522;52.198;9.890;2023-07-31T05:07:06;16.10;99.90
20722;DHT22;10522;52.198;9.890;2023-07-31T05:09:32;16.10;99.90
20722;DHT22;10522;52.198;9.890;2023-07-31T05:11:58;16.10;99.90
20722;DHT22;10522;52.198;9.890;2023-07-31T05:14:23;16.10;99.90
20722;DHT22;10522;52.198;9.890;2023-07-31T05:16:49;16.20;99.90
20722;DHT22;10522;52.198;9.890;2023-07-31T05:19:15;16.20;99.90
20722;DHT22;10522;52.198;9.890;2023-07-31T05:21:40;16.20;99.90
20722;DHT22;10522;52.198;9.890;2023-07-31T05:24:06;16.20;99.90
20722;DHT22;10522;52.198;9.890;2023-07-31T05:26:32;16.20;99.90
20722;DHT22;10522;52.198;9.890;2023-07-31T05:28:57;16.30;99.90
20722;DHT22;10522;52.198;9.890;2023-07-31T05:31:23;16.40;99.90
20722;DHT22;10522;52.198;9.890;2023-07-31T05:33:50;16.30;99.90
20722;DHT22;10522;52.198;9.890;2023-07-31T05:36:16;16.30;99.90
20722;DHT22;10522;52.198;9.890;2023-07-31T05:38:42;16.30;99.90
20722;DHT22;10522;52.198;9.890;2023-07-31T05:41:10;16.40;99.90
20722;DHT22;10522;52.198;9.890;2023-07-31T05:43:36;16.40;99.90
20722;DHT22;10522;52.198;9.890;2023-07-31T05:46:01;16.50;99.90
20722;DHT22;10522;52.198;9.890;2023-07-31T05:48:27;16.40;99.90
20722;DHT22;10522;52.198;9.890;2023-07-31T05:50:52;16.50;99.90
20722;DHT22;10522;52.198;9.890;2023-07-31T05:53:18;16.50;99.90
20722;DHT22;10522;52.198;9.890;2023-07-31T05:55:44;16.50;99.90
20722;DHT22;10522;52.198;9.890;2023-07-31T05:58:09;16.60;99.90
20722;DHT22;10522;52.198;9.890;2023-07-31T06:00:35;16.50;99.90
20722;DHT22;10522;52.198;9.890;2023-07-31T06:03:00;16.50;99.90
20722;DHT22;10522;52.198;9.890;2023-07-31T06:05:26;16.50;99.90
20722;DHT22;10522;52.198;9.890;2023-07-31T06:07:54;16.60;99.90
20722;DHT22;10522;52.198;9.890;2023-07-31T06:10:19;16.60;99.90
20722;DHT22;10522;52.198;9.890;2023-07-31T06:12:45;16.50;99.90
20722;DHT22;10522;52.198;9.890;2023-07-31T06:15:10;16.50;99.90
20722;DHT22;10522;52.198;9.890;2023-07-31T06:17:36;16.50;99.90
20722;DHT22;10522;52.198;9.890;2023-07-31T06:20:02;16.60;99.90
20722;DHT22;10522;52.198;9.890;2023-07-31T06:22:30;16.60;99.90
20722;DHT22;10522;52.198;9.890;2023-07-31T06:24:56;16.60;99.90
20722;DHT22;10522;52.198;9.890;2023-07-31T06:27:22;16.60;99.90
20722;DHT22;10522;52.198;9.890;2023-07-31T06:29:48;16.60;99.90
20722;DHT22;10522;52.198;9.890;2023-07-31T06:32:13;16.60;99.90
20722;DHT22;10522;52.198;9.890;2023-07-31T06:34:39;16.60;99.90
20722;DHT22;10522;52.198;9.890;2023-07-31T06:37:05;16.60;99.90
20722;DHT22;10522;52.198;9.890;2023-07-31T06:39:33;16.50;99.90
20722;DHT22;10522;52.198;9.890;2023-07-31T06:41:59;16.60;99.90
20722;DHT22;10522;52.198;9.890;2023-07-31T06:44:24;16.60;99.90
20722;DHT22;10522;52.198;9.890;2023-07-31T06:46:50;16.50;99.90
20722;DHT22;10522;52.198;9.890;2023-07-31T06:49:16;16.50;99.90
20722;DHT22;10522;52.198;9.890;2023-07-31T06:51:42;16.50;99.90
20722;DHT22;10522;52.198;9.890;2023-07-31T06:54:08;16.50;99.90
20722;DHT22;10522;52.198;9.890;2023-07-31T06:56:34;16.50;99.90
20722;DHT22;10522;52.198;9.890;2023-07-31T06:59:00;16.50;99.90
20722;DHT22;10522;52.198;9.890;2023-07-31T07:01:26;16.50;99.90
20722;DHT22;10522;52.198;9.890;2023-07-31T07:03:53;16.50;99.90
20722;DHT22;10522;52.198;9.890;2023-07-31T07:06:18;16.40;99.90
20722;DHT22;10522;52.198;9.890;2023-07-31T07:08:44;16.40;99.90
20722;DHT22;10522;52.198;9.890;2023-07-31T07:11:10;16.30;99.90
20722;DHT22;10522;52.198;9.890;2023-07-31T07:13:36;16.40;99.90
20722;DHT22;10522;52.198;9.890;2023-07-31T07:16:01;16.40;99.90
20722;DHT22;10522;52.198;9.890;2023-07-31T07:18:27;16.40;99.90
20722;DHT22;10522;52.198;9.890;2023-07-31T07:20:53;16.40;99.90
20722;DHT22;10522;52.198;9.890;2023-07-31T07:23:20;16.40;99.90
20722;DHT22;10522;52.198;9.890;2023-07-31T07:25:46;16.50;99.90
20722;DHT22;10522;52.198;9.890;2023-07-31T07:28:13;16.50;99.90
20722;DHT22;10522;52.198;9.890;2023-07-31T07:30:38;16.50;99.90
20722;DHT22;10522;52.198;9.890;2023-07-31T07:33:04;16.60;99.90
20722;DHT22;10522;52.198;9.890;2023-07-31T07:35:30;16.60;99.90
20722;DHT22;10522;52.198;9.890;2023-07-31T07:37:58;16.70;99.90
20722;DHT22;10522;52.198;9.890;2023-07-31T07:40:23;16.70;99.90
20722;DHT22;10522;52.198;9.890;2023-07-31T07:42:49;16.60;99.90
20722;DHT22;10522;52.198;9.890;2023-07-31T07:45:15;16.70;99.90
20722;DHT22;10522;52.198;9.890;2023-07-31T07:47:41;16.70;99.90
20722;DHT22;10522;52.198;9.890;2023-07-31T07:50:08;16.70;99.90
20722;DHT22;10522;52.198;9.890;2023-07-31T07:52:33;16.70;99.90
20722;DHT22;10522;52.198;9.890;2023-07-31T07:54:59;16.70;99.90
20722;DHT22;10522;52.198;9.890;2023-07-31T07:57:26;16.60;99.90
20722;DHT22;10522;52.198;9.890;2023-07-31T07:59:51;16.70;99.90
20722;DHT22;10522;52.198;9.890;2023-07-31T08:02:17;16.70;99.90
20722;DHT22;10522;52.198;9.890;2023-07-31T08:04:43;16.60;99.90
20722;DHT22;10522;52.198;9.890;2023-07-31T08:07:11;16.60;99.90
20722;DHT22;10522;52.198;9.890;2023-07-31T08:09:37;16.50;99.90
20722;DHT22;10522;52.198;9.890;2023-07-31T08:12:04;16.60;99.90
20722;DHT22;10522;52.198;9.890;2023-07-31T08:14:29;16.60;99.90
20722;DHT22;10522;52.198;9.890;2023-07-31T08:16:58;16.70;99.90
20722;DHT22;10522;52.198;9.890;2023-07-31T08:19:24;16.80;99.90
20722;DHT22;10522;52.198;9.890;2023-07-31T08:21:49;16.80;99.90
20722;DHT22;10522;52.198;9.890;2023-07-31T08:24:15;16.80;99.90
20722;DHT22;10522;52.198;9.890;2023-07-31T08:26:41;16.90;99.90
20722;DHT22;10522;52.198;9.890;2023-07-31T08:29:06;16.90;99.90
20722;DHT22;10522;52.198;9.890;2023-07-31T08:31:32;17.00;99.90
20722;DHT22;10522;52.198;9.890;2023-07-31T08:33:58;17.00;99.90
20722;DHT22;10522;52.198;9.890;2023-07-31T08:36:23;17.00;99.90
20722;DHT22;10522;52.198;9.890;2023-07-31T08:38:49;17.00;99.90
20722;DHT22;10522;52.198;9.890;2023-07-31T08:41:16;17.00;99.90
20722;DHT22;10522;52.198;9.890;2023-07-31T08:43:45;16.90;99.90
20722;DHT22;10522;52.198;9.890;2023-07-31T08:46:11;17.00;99.90
20722;DHT22;10522;52.198;9.890;2023-07-31T08:48:42;16.90;99.90
20722;DHT22;10522;52.198;9.890;2023-07-31T08:51:08;17.00;99.90
20722;DHT22;10522;52.198;9.890;2023-07-31T08:53:34;16.90;99.90
20722;DHT22;10522;52.198;9.890;2023-07-31T08:56:00;16.90;99.90
20722;DHT22;10522;52.198;9.890;2023-07-31T08:58:27;16.80;99.90
20722;DHT22;10522;52.198;9.890;2023-07-31T09:00:56;16.80;99.90
20722;DHT22;10522;52.198;9.890;2023-07-31T09:03:24;16.80;99.90
20722;DHT22;10522;52.198;9.890;2023-07-31T09:05:51;16.80;99.90
20722;DHT22;10522;52.198;9.890;2023-07-31T09:08:21;16.90;99.90
20722;DHT22;10522;52.198;9.890;2023-07-31T09:10:47;16.90;99.90
20722;DHT22;10522;52.198;9.890;2023-07-31T09:13:15;17.00;99.90
20722;DHT22;10522;52.198;9.890;2023-07-31T09:15:43;17.10;99.90
20722;DHT22;10522;52.198;9.890;2023-07-31T09:18:09;17.20;99.90
20722;DHT22;10522;52.198;9.890;2023-07-31T09:20:35;17.20;99.90
20722;DHT22;10522;52.198;9.890;2023-07-31T09:23:13;17.20;99.90
20722;DHT22;10522;52.198;9.890;2023-07-31T09:25:43;17.30;99.90
20722;DHT22;10522;52.198;9.890;2023-07-31T09:28:10;17.40;99.90
20722;DHT22;10522;52.198;9.890;2023-07-31T09:31:05;17.40;99.90
20722;DHT22;10522;52.198;9.890;2023-07-31T09:33:31;17.40;99.90
20722;DHT22;10522;52.198;9.890;2023-07-31T09:35:59;17.50;99.90
20722;DHT22;10522;52.198;9.890;2023-07-31T09:38:25;17.50;99.90
20722;DHT22;10522;52.198;9.890;2023-07-31T09:40:51;17.30;99.90
20722;DHT22;10522;52.198;9.890;2023-07-31T09:43:19;17.40;99.90
20722;DHT22;10522;52.198;9.890;2023-07-31T09:45:45;17.40;99.90
20722;DHT22;10522;52.198;9.890;2023-07-31T09:48:14;17.50;99.90
20722;DHT22;10522;52.198;9.890;2023-07-31T09:50:42;17.40;99.90
20722;DHT22;10522;52.198;9.890;2023-07-31T09:53:09;17.50;99.90
20722;DHT22;10522;52.198;9.890;2023-07-31T09:55:35;17.40;99.90
20722;DHT22;10522;52.198;9.890;2023-07-31T09:58:07;17.40;99.90
20722;DHT22;10522;52.198;9.890;2023-07-31T10:00:34;17.50;99.90
20722;DHT22;10522;52.198;9.890;2023-07-31T10:03:01;17.50;99.90
20722;DHT22;10522;52.198;9.890;2023-07-31T10:05:34;17.60;99.90
20722;DHT22;10522;52.198;9.890;2023-07-31T10:08:00;17.60;99.90
20722;DHT22;10522;52.198;9.890;2023-07-31T10:10:27;17.80;99.90
20722;DHT22;10522;52.198;9.890;2023-07-31T10:12:54;17.90;99.90
20722;DHT22;10522;52.198;9.890;2023-07-31T10:15:21;18.10;99.90
20722;DHT22;10522;52.198;9.890;2023-07-31T10:17:48;18.10;99.90
20722;DHT22;10522;52.198;9.890;2023-07-31T10:20:15;18.10;99.90
20722;DHT22;10522;52.198;9.890;2023-07-31T10:22:44;18.00;99.90
20722;DHT22;10522;52.198;9.890;2023-07-31T10:25:15;18.10;99.90
20722;DHT22;10522;52.198;9.890;2023-07-31T10:27:42;18.00;99.90
20722;DHT22;10522;52.198;9.890;2023-07-31T10:30:11;17.90;99.90
20722;DHT22;10522;52.198;9.890;2023-07-31T10:32:39;17.90;99.90
20722;DHT22;10522;52.198;9.890;2023-07-31T10:35:06;18.00;99.90
20722;DHT22;10522;52.198;9.890;2023-07-31T10:37:40;18.10;99.90
20722;DHT22;10522;52.198;9.890;2023-07-31T10:40:17;18.10;99.90
20722;DHT22;10522;52.198;9.890;2023-07-31T10:42:48;18.20;99.90
20722;DHT22;10522;52.198;9.890;2023-07-31T10:45:23;18.40;99.90
20722;DHT22;10522;52.198;9.890;2023-07-31T10:47:49;18.70;99.90
20722;DHT22;10522;52.198;9.890;2023-07-31T10:50:20;19.30;99.90
20722;DHT22;10522;52.198;9.890;2023-07-31T10:52:51;19.70;99.90
20722;DHT22;10522;52.198;9.890;2023-07-31T10:55:40;19.80;99.90
20722;DHT22;10522;52.198;9.890;2023-07-31T10:58:07;19.80;99.90
20722;DHT22;10522;52.198;9.890;2023-07-31T11:00:33;19.80;99.90
20722;DHT22;10522;52.198;9.890;2023-07-31T11:04:00;19.80;99.90
20722;DHT22;10522;52.198;9.890;2023-07-31T11:06:01;20.00;99.90
20722;DHT22;10522;52.198;9.890;2023-07-31T11:08:32;20.10;99.90
20722;DHT22;10522;52.198;9.890;2023-07-31T11:13:30;19.70;99.90
20722;DHT22;10522;52.198;9.890;2023-07-31T11:15:56;19.70;99.90
20722;DHT22;10522;52.198;9.890;2023-07-31T11:18:22;19.60;99.90
20722;DHT22;10522;52.198;9.890;2023-07-31T11:20:48;19.80;99.90
20722;DHT22;10522;52.198;9.890;2023-07-31T11:23:16;19.70;99.90
20722;DHT22;10522;52.198;9.890;2023-07-31T11:25:42;19.70;99.90
20722;DHT22;10522;52.198;9.890;2023-07-31T11:28:13;19.60;99.90
20722;DHT22;10522;52.198;9.890;2023-07-31T11:30:40;19.30;99.90
20722;DHT22;10522;52.198;9.890;2023-07-31T11:33:10;19.20;99.90
20722;DHT22;10522;52.198;9.890;2023-07-31T11:35:44;19.20;99.90
20722;DHT22;10522;52.198;9.890;2023-07-31T11:38:24;19.30;99.90
20722;DHT22;10522;52.198;9.890;2023-07-31T11:40:51;19.20;99.90
20722;DHT22;10522;52.198;9.890;2023-07-31T11:43:18;19.20;99.90
20722;DHT22;10522;52.198;9.890;2023-07-31T11:45:48;19.30;99.90
20722;DHT22;10522;52.198;9.890;2023-07-31T11:48:25;19.60;99.90
20722;DHT22;10522;52.198;9.890;2023-07-31T11:50:54;19.60;99.90
20722;DHT22;10522;52.198;9.890;2023-07-31T11:55:59;19.70;99.90
20722;DHT22;10522;52.198;9.890;2023-07-31T11:58:26;19.80;99.90
20722;DHT22;10522;52.198;9.890;2023-07-31T12:00:53;19.80;99.90
20722;DHT22;10522;52.198;9.890;2023-07-31T12:03:19;19.80;99.90
20722;DHT22;10522;52.198;9.890;2023-07-31T12:05:47;19.70;99.90
20722;DHT22;10522;52.198;9.890;2023-07-31T12:08:13;19.60;99.90
20722;DHT22;10522;52.198;9.890;2023-07-31T12:10:39;19.60;99.90
20722;DHT22;10522;52.198;9.890;2023-07-31T12:13:11;19.60;99.90
20722;DHT22;10522;52.198;9.890;2023-07-31T12:15:41;19.60;99.90
20722;DHT22;10522;52.198;9.890;2023-07-31T12:18:09;19.30;99.90
20722;DHT22;10522;52.198;9.890;2023-07-31T12:20:35;19.20;99.90
20722;DHT22;10522;52.198;9.890;2023-07-31T12:23:01;19.10;99.90
20722;DHT22;10522;52.198;9.890;2023-07-31T12:25:33;19.00;99.90
20722;DHT22;10522;52.198;9.890;2023-07-31T12:28:04;19.10;99.90
20722;DHT22;10522;52.198;9.890;2023-07-31T12:30:34;19.20;99.90
20722;DHT22;10522;52.198;9.890;2023-07-31T12:33:14;19.50;99.90
20722;DHT22;10522;52.198;9.890;2023-07-31T12:35:46;19.60;99.90
20722;DHT22;10522;52.198;9.890;2023-07-31T12:38:13;19.50;99.90
20722;DHT22;10522;52.198;9.890;2023-07-31T12:40:40;19.30;99.90
20722;DHT22;10522;52.198;9.890;2023-07-31T12:43:07;19.10;99.90
20722;DHT22;10522;52.198;9.890;2023-07-31T12:45:33;18.90;99.90
20722;DHT22;10522;52.198;9.890;2023-07-31T12:47:59;18.90;99.90
20722;DHT22;10522;52.198;9.890;2023-07-31T12:50:26;18.90;99.90
20722;DHT22;10522;52.198;9.890;2023-07-31T12:52:53;18.90;99.90
20722;DHT22;10522;52.198;9.890;2023-07-31T12:55:20;18.90;99.90
20722;DHT22;10522;52.198;9.890;2023-07-31T12:57:46;18.90;99.90
20722;DHT22;10522;52.198;9.890;2023-07-31T13:00:12;19.20;99.90
20722;DHT22;10522;52.198;9.890;2023-07-31T13:02:39;19.40;99.90
20722;DHT22;10522;52.198;9.890;2023-07-31T13:05:04;19.50;99.90
20722;DHT22;10522;52.198;9.890;2023-07-31T13:07:30;19.60;99.90
20722;DHT22;10522;52.198;9.890;2023-07-31T13:09:56;19.80;99.90
20722;DHT22;10522;52.198;9.890;2023-07-31T13:12:21;19.80;99.90
20722;DHT22;10522;52.198;9.890;2023-07-31T13:14:47;19.80;99.90
20722;DHT22;10522;52.198;9.890;2023-07-31T13:17:13;19.60;99.90
20722;DHT22;10522;52.198;9.890;2023-07-31T13:19:38;19.50;99.90
20722;DHT22;10522;52.198;9.890;2023-07-31T13:22:04;19.40;99.90
20722;DHT22;10522;52.198;9.890;2023-07-31T13:24:29;19.20;99.90
20722;DHT22;10522;52.198;9.890;2023-07-31T13:26:56;19.30;99.90
20722;DHT22;10522;52.198;9.890;2023-07-31T13:29:22;19.40;99.90
20722;DHT22;10522;52.198;9.890;2023-07-31T13:31:48;19.40;99.90
20722;DHT22;10522;52.198;9.890;2023-07-31T13:34:13;19.50;99.90
20722;DHT22;10522;52.198;9.890;2023-07-31T13:36:39;19.40;99.90
20722;DHT22;10522;52.198;9.890;2023-07-31T13:39:05;19.50;99.90
20722;DHT22;10522;52.198;9.890;2023-07-31T13:41:30;19.70;99.90
20722;DHT22;10522;52.198;9.890;2023-07-31T13:43:56;19.80;99.90
20722;DHT22;10522;52.198;9.890;2023-07-31T13:46:21;19.60;99.90
20722;DHT22;10522;52.198;9.890;2023-07-31T13:48:47;19.60;99.90
20722;DHT22;10522;52.198;9.890;2023-07-31T13:51:13;19.50;99.90
20722;DHT22;10522;52.198;9.890;2023-07-31T13:53:38;19.40;99.90
20722;DHT22;10522;52.198;9.890;2023-07-31T13:56:04;19.30;99.90
20722;DHT22;10522;52.198;9.890;2023-07-31T13:58:29;19.20;99.90
20722;DHT22;10522;52.198;9.890;2023-07-31T14:00:55;19.10;99.90
20722;DHT22;10522;52.198;9.890;2023-07-31T14:03:21;19.10;99.90
20722;DHT22;10522;52.198;9.890;2023-07-31T14:05:46;19.10;99.90
20722;DHT22;10522;52.198;9.890;2023-07-31T14:08:12;19.10;99.90
20722;DHT22;10522;52.198;9.890;2023-07-31T14:10:37;19.10;99.90
20722;DHT22;10522;52.198;9.890;2023-07-31T14:13:03;19.10;99.90
20722;DHT22;10522;52.198;9.890;2023-07-31T14:15:29;19.00;99.90
20722;DHT22;10522;52.198;9.890;2023-07-31T14:17:54;19.00;99.90
20722;DHT22;10522;52.198;9.890;2023-07-31T14:20:20;19.10;99.90
20722;DHT22;10522;52.198;9.890;2023-07-31T14:22:45;19.30;99.90
20722;DHT22;10522;52.198;9.890;2023-07-31T14:25:11;19.40;99.90
20722;DHT22;10522;52.198;9.890;2023-07-31T14:27:37;19.40;99.90
20722;DHT22;10522;52.198;9.890;2023-07-31T14:30:03;19.70;99.90
20722;DHT22;10522;52.198;9.890;2023-07-31T14:32:29;20.00;99.90
20722;DHT22;10522;52.198;9.890;2023-07-31T14:34:54;20.30;99.90
20722;DHT22;10522;52.198;9.890;2023-07-31T14:37:20;20.50;99.90
20722;DHT22;10522;52.198;9.890;2023-07-31T14:39:46;20.60;99.90
20722;DHT22;10522;52.198;9.890;2023-07-31T14:42:11;20.50;99.90
20722;DHT22;10522;52.198;9.890;2023-07-31T14:44:37;20.40;99.90
20722;DHT22;10522;52.198;9.890;2023-07-31T14:47:03;20.40;99.90
20722;DHT22;10522;52.198;9.890;2023-07-31T14:49:29;20.20;99.90
20722;DHT22;10522;52.198;9.890;2023-07-31T14:51:55;20.00;99.90
20722;DHT22;10522;52.198;9.890;2023-07-31T14:54:20;20.10;99.90
20722;DHT22;10522;52.198;9.890;2023-07-31T14:56:46;20.20;99.90
20722;DHT22;10522;52.198;9.890;2023-07-31T14:59:11;20.10;99.90
20722;DHT22;10522;52.198;9.890;2023-07-31T15:01:37;20.10;99.90
20722;DHT22;10522;52.198;9.890;2023-07-31T15:04:03;20.20;99.90
20722;DHT22;10522;52.198;9.890;2023-07-31T15:06:29;20.20;99.90
20722;DHT22;10522;52.198;9.890;2023-07-31T15:08:54;20.20;99.90
20722;DHT22;10522;52.198;9.890;2023-07-31T15:11:20;20.10;99.90
20722;DHT22;10522;52.198;9.890;2023-07-31T15:13:46;20.00;99.90
20722;DHT22;10522;52.198;9.890;2023-07-31T15:16:12;19.90;99.90
20722;DHT22;10522;52.198;9.890;2023-07-31T15:18:38;19.90;99.90
20722;DHT22;10522;52.198;9.890;2023-07-31T15:21:04;19.80;99.90
20722;DHT22;10522;52.198;9.890;2023-07-31T15:23:31;19.80;99.90
20722;DHT22;10522;52.198;9.890;2023-07-31T15:25:56;19.90;99.90
20722;DHT22;10522;52.198;9.890;2023-07-31T15:28:22;20.00;99.90
20722;DHT22;10522;52.198;9.890;2023-07-31T15:30:48;20.00;99.90
20722;DHT22;10522;52.198;9.890;2023-07-31T15:33:14;19.90;99.90
20722;DHT22;10522;52.198;9.890;2023-07-31T15:35:40;20.00;99.90
20722;DHT22;10522;52.198;9.890;2023-07-31T15:38:06;20.00;99.90
20722;DHT22;10522;52.198;9.890;2023-07-31T15:40:32;20.10;99.90